createdAt,value
2022-08-28T00:00:52.799Z,100809.00
2022-08-28T00:05:53.198Z,100809.00
2022-08-28T00:10:52.773Z,100803.00
2022-08-28T00:15:52.795Z,100809.00
2022-08-28T00:20:52.933Z,100811.00
2022-08-28T00:25:52.867Z,100813.00
2022-08-28T00:30:52.926Z,100815.00
2022-08-28T00:35:52.899Z,100815.00
2022-08-28T00:40:52.871Z,100817.00
2022-08-28T00:45:54.848Z,100826.00
2022-08-28T00:51:13.161Z,100826.00
2022-08-28T00:56:13.491Z,100830.00
2022-08-28T01:01:13.900Z,100832.00
2022-08-28T01:06:14.092Z,100834.00
2022-08-28T01:11:13.863Z,100836.00
2022-08-28T01:16:13.973Z,100834.00
2022-08-28T01:21:20.538Z,100840.00
2022-08-28T01:26:15.916Z,100842.00
2022-08-28T01:31:15.864Z,100840.00
2022-08-28T01:36:15.940Z,100842.00
2022-08-28T01:41:16.180Z,100846.00
2022-08-28T01:46:15.917Z,100848.00
2022-08-28T01:51:16.450Z,100848.00
2022-08-28T01:56:17.120Z,100852.00
2022-08-28T02:01:16.951Z,100858.00
2022-08-28T02:06:17.441Z,100856.00
2022-08-28T02:11:17.893Z,100856.00
2022-08-28T02:16:18.027Z,100858.00
2022-08-28T02:21:17.950Z,100862.00
2022-08-28T02:26:17.984Z,100865.00
2022-08-28T02:31:18.150Z,100867.00
2022-08-28T02:36:17.937Z,100873.00
2022-08-28T02:41:17.990Z,100873.00
2022-08-28T02:46:17.982Z,100875.00
2022-08-28T02:51:19.568Z,100883.00
2022-08-28T02:56:19.953Z,100885.00
2022-08-28T03:01:20.074Z,100883.00
2022-08-28T03:06:20.009Z,100885.00
2022-08-28T03:11:19.921Z,100885.00
2022-08-28T03:16:20.046Z,100891.00
2022-08-28T03:21:20.023Z,100893.00
2022-08-28T03:26:23.882Z,100897.00
2022-08-28T03:31:24.001Z,100897.00
2022-08-28T03:36:24.104Z,100901.00
2022-08-28T03:41:23.931Z,100909.00
2022-08-28T03:46:24.149Z,100915.00
2022-08-28T03:51:29.213Z,100922.00
2022-08-28T03:56:26.011Z,100924.00
2022-08-28T04:01:26.135Z,100926.00
2022-08-28T04:06:27.653Z,100930.00
2022-08-28T04:11:27.944Z,100934.00
2022-08-28T04:16:28.146Z,100936.00
2022-08-28T04:21:28.580Z,100944.00
2022-08-28T04:26:29.655Z,100942.00
2022-08-28T04:31:32.266Z,100944.00
2022-08-28T04:36:33.164Z,100946.00
2022-08-28T04:41:33.063Z,100952.00
2022-08-28T04:46:33.018Z,100956.00
2022-08-28T04:51:33.062Z,100962.00
2022-08-28T04:56:33.081Z,100967.00
2022-08-28T05:01:33.566Z,100967.00
2022-08-28T05:06:33.159Z,100969.00
2022-08-28T05:11:35.122Z,100975.00
2022-08-28T05:16:35.115Z,100979.00
2022-08-28T05:21:35.019Z,100987.00
2022-08-28T05:26:38.757Z,100987.00
2022-08-28T05:31:40.075Z,100991.00
2022-08-28T05:36:40.112Z,100995.00
2022-08-28T05:41:40.064Z,100997.00
2022-08-28T05:46:40.093Z,101005.00
2022-08-28T05:51:40.026Z,101007.00
2022-08-28T05:56:40.173Z,101007.00
2022-08-28T06:01:40.122Z,101009.00
2022-08-28T06:06:40.930Z,101014.00
2022-08-28T06:11:42.140Z,101020.00
2022-08-28T06:16:43.081Z,101018.00
2022-08-28T06:21:43.159Z,101026.00
2022-08-28T06:26:43.051Z,101028.00
2022-08-28T06:31:43.141Z,101028.00
2022-08-28T06:36:43.836Z,101034.00
2022-08-28T06:41:44.149Z,101038.00
2022-08-28T06:46:44.078Z,101042.00
2022-08-28T06:51:44.035Z,101046.00
2022-08-28T06:56:45.826Z,101048.00
2022-08-28T07:01:46.143Z,101044.00
2022-08-28T07:06:52.793Z,101042.00
2022-08-28T07:11:50.574Z,101040.00
2022-08-28T07:16:50.098Z,101040.00
2022-08-28T07:21:52.093Z,101042.00
2022-08-28T07:26:52.114Z,101044.00
2022-08-28T07:31:52.112Z,101046.00
2022-08-28T07:36:52.228Z,101058.00
2022-08-28T07:41:52.188Z,101062.00
2022-08-28T07:46:52.217Z,101070.00
2022-08-28T07:51:54.221Z,101072.00
2022-08-28T07:56:54.768Z,101072.00
2022-08-28T08:01:55.175Z,101070.00
2022-08-28T08:06:58.072Z,101066.00
2022-08-28T08:11:57.563Z,101064.00
2022-08-28T08:16:57.252Z,101064.00
2022-08-28T08:21:57.172Z,101064.00
2022-08-28T08:26:59.481Z,101062.00
2022-08-28T08:32:01.044Z,101062.00
2022-08-28T08:37:01.606Z,101058.00
2022-08-28T08:42:01.204Z,101050.00
2022-08-28T08:47:02.469Z,101044.00
2022-08-28T08:52:02.215Z,101038.00
2022-08-28T08:57:02.245Z,101034.00
2022-08-28T09:02:02.473Z,101038.00
2022-08-28T09:07:02.262Z,101042.00
2022-08-28T09:12:03.340Z,101040.00
2022-08-28T09:17:03.205Z,101040.00
2022-08-28T09:22:03.246Z,101038.00
2022-08-28T09:27:03.643Z,101040.00
2022-08-28T09:29:59.705Z,101044.00
2022-08-28T09:35:01.649Z,101046.00
2022-08-28T09:40:01.838Z,101044.00
2022-08-28T09:45:01.765Z,101042.00
2022-08-28T09:50:03.748Z,101042.00
2022-08-28T09:55:05.636Z,101036.00
2022-08-28T10:00:08.083Z,101032.00
2022-08-28T10:05:08.061Z,101026.00
2022-08-28T10:10:07.874Z,101022.00
2022-08-28T10:15:07.715Z,101016.00
2022-08-28T10:20:07.753Z,101016.00
2022-08-28T10:25:07.777Z,101016.00
2022-08-28T10:30:12.386Z,101016.00
2022-08-28T10:35:11.539Z,101016.00
2022-08-28T10:40:11.821Z,101016.00
2022-08-28T10:45:11.812Z,101022.00
2022-08-28T10:50:11.772Z,101024.00
2022-08-28T10:55:11.780Z,101020.00
2022-08-28T11:00:12.202Z,101018.00
2022-08-28T11:05:12.153Z,101018.00
2022-08-28T11:10:11.855Z,101024.00
2022-08-28T11:15:11.726Z,101022.00
2022-08-28T11:20:11.749Z,101032.00
2022-08-28T11:25:12.053Z,101028.00
2022-08-28T11:30:11.712Z,101026.00
2022-08-28T11:35:11.765Z,101022.00
2022-08-28T11:40:11.878Z,101024.00
2022-08-28T11:45:11.838Z,101022.00
2022-08-28T11:50:11.772Z,101026.00
2022-08-28T11:55:11.810Z,101022.00
2022-08-28T12:00:12.141Z,101026.00
2022-08-28T12:05:11.795Z,101028.00
2022-08-28T12:10:11.885Z,101026.00
2022-08-28T12:15:11.980Z,101020.00
2022-08-28T12:20:11.922Z,101022.00
2022-08-28T12:25:11.821Z,101028.00
2022-08-28T12:30:13.747Z,101020.00
2022-08-28T12:35:16.461Z,101016.00
2022-08-28T12:40:16.007Z,101018.00
2022-08-28T12:45:15.799Z,101014.00
2022-08-28T12:50:16.810Z,101018.00
2022-08-28T12:55:17.962Z,101012.00
2022-08-28T13:00:19.118Z,101011.00
2022-08-28T13:05:18.857Z,101007.00
2022-08-28T13:10:19.124Z,101003.00
2022-08-28T13:15:24.411Z,101003.00
2022-08-28T13:20:21.007Z,101003.00
2022-08-28T13:25:20.842Z,100999.00
2022-08-28T13:30:20.996Z,100997.00
2022-08-28T13:35:20.910Z,100995.00
2022-08-28T13:45:22.952Z,100991.00
2022-08-28T13:50:23.323Z,100991.00
2022-08-28T13:55:22.894Z,100989.00
2022-08-28T14:00:24.869Z,100985.00
2022-08-28T14:05:24.916Z,100985.00
2022-08-28T14:10:25.029Z,100983.00
2022-08-28T14:15:28.092Z,100975.00
2022-08-28T14:20:28.553Z,100969.00
2022-08-28T14:25:28.880Z,100965.00
2022-08-28T14:30:29.289Z,100964.00
2022-08-28T14:35:28.914Z,100958.00
2022-08-28T14:40:29.062Z,100960.00
2022-08-28T14:45:29.981Z,100958.00
2022-08-28T14:50:29.995Z,100958.00
2022-08-28T14:55:30.017Z,100960.00
2022-08-28T15:00:30.081Z,100958.00
2022-08-28T15:05:29.914Z,100956.00
2022-08-28T15:10:30.093Z,100962.00
2022-08-28T15:15:30.540Z,100960.00
2022-08-28T15:20:31.012Z,100960.00
2022-08-28T15:25:31.199Z,100962.00
2022-08-28T15:30:30.999Z,100958.00
2022-08-28T15:35:31.015Z,100960.00
2022-08-28T15:40:49.577Z,100958.00
2022-08-28T15:45:50.468Z,100954.00
2022-08-28T15:50:51.364Z,100952.00
2022-08-28T15:55:53.479Z,100956.00
2022-08-28T16:00:53.290Z,100954.00
2022-08-28T16:05:53.055Z,100948.00
2022-08-28T16:10:53.115Z,100946.00
2022-08-28T16:15:53.125Z,100944.00
2022-08-28T16:20:53.022Z,100948.00
2022-08-28T16:25:53.155Z,100950.00
2022-08-28T16:30:53.108Z,100948.00
2022-08-28T16:35:55.126Z,100944.00
2022-08-28T16:40:55.064Z,100948.00
2022-08-28T16:45:55.042Z,100946.00
2022-08-28T16:50:55.084Z,100948.00
2022-08-28T16:55:55.005Z,100946.00
2022-08-28T17:00:55.941Z,100950.00
2022-08-28T17:05:56.109Z,100948.00
2022-08-28T17:10:56.402Z,100946.00
2022-08-28T17:15:57.011Z,100942.00
2022-08-28T17:21:15.369Z,100946.00
2022-08-28T17:26:18.160Z,100948.00
2022-08-28T17:31:19.226Z,100950.00
2022-08-28T17:36:25.678Z,100952.00
2022-08-28T17:41:21.216Z,100954.00
2022-08-28T17:46:21.121Z,100958.00
2022-08-28T17:51:21.032Z,100958.00
2022-08-28T17:56:23.068Z,100964.00
2022-08-28T18:01:25.271Z,100967.00
2022-08-28T18:06:25.095Z,100969.00
2022-08-28T18:11:25.450Z,100971.00
2022-08-28T18:16:30.945Z,100977.00
2022-08-28T18:21:28.360Z,100977.00
2022-08-28T18:26:28.071Z,100979.00
2022-08-28T18:31:28.138Z,100985.00
2022-08-28T18:36:28.944Z,100995.00
2022-08-28T18:41:30.695Z,101001.00
2022-08-28T18:46:31.246Z,101003.00
2022-08-28T18:51:32.234Z,101007.00
2022-08-28T18:56:32.389Z,101014.00
2022-08-28T19:01:34.391Z,101022.00
2022-08-28T19:06:34.475Z,101032.00
2022-08-28T19:11:35.473Z,101038.00
2022-08-28T19:16:35.261Z,101046.00
2022-08-28T19:21:35.329Z,101058.00
2022-08-28T19:26:36.600Z,101060.00
2022-08-28T19:31:37.275Z,101062.00
2022-08-28T19:36:37.139Z,101068.00
2022-08-28T19:41:37.217Z,101070.00
2022-08-28T19:46:37.266Z,101070.00
2022-08-28T19:51:37.243Z,101078.00
2022-08-28T19:56:37.275Z,101086.00
2022-08-28T20:01:37.273Z,101088.00
2022-08-28T20:06:37.143Z,101088.00
2022-08-28T20:11:37.233Z,101094.00
2022-08-28T20:16:37.226Z,101099.00
2022-08-28T20:21:38.341Z,101111.00
2022-08-28T20:26:39.170Z,101113.00
2022-08-28T20:31:39.908Z,101115.00
2022-08-28T20:36:40.201Z,101117.00
2022-08-28T20:41:40.282Z,101117.00
2022-08-28T20:46:41.960Z,101121.00
2022-08-28T20:51:56.210Z,101119.00
2022-08-28T20:56:56.910Z,101125.00
2022-08-28T21:01:57.215Z,101127.00
2022-08-28T21:06:57.285Z,101139.00
2022-08-28T21:11:57.276Z,101144.00
2022-08-28T21:16:57.299Z,101148.00
2022-08-28T21:21:57.235Z,101146.00
2022-08-28T21:26:57.313Z,101154.00
2022-08-28T21:31:57.212Z,101154.00
2022-08-28T21:36:57.638Z,101160.00
2022-08-28T21:41:57.321Z,101164.00
2022-08-28T21:46:57.421Z,101162.00
2022-08-28T21:51:59.230Z,101168.00
2022-08-28T21:56:59.395Z,101166.00
2022-08-28T22:01:59.328Z,101166.00
2022-08-28T22:06:59.286Z,101172.00
2022-08-28T22:12:00.105Z,101174.00
2022-08-28T22:17:00.345Z,101180.00
2022-08-28T22:22:22.901Z,101180.00
2022-08-28T22:27:23.372Z,101180.00
2022-08-28T22:32:25.198Z,101176.00
2022-08-28T22:37:28.258Z,101172.00
2022-08-28T22:42:28.302Z,101172.00
2022-08-28T22:47:28.511Z,101168.00
2022-08-28T22:52:28.362Z,101168.00
2022-08-28T22:57:28.305Z,101162.00
2022-08-28T23:02:28.341Z,101164.00
2022-08-28T23:07:28.374Z,101164.00
2022-08-28T23:12:28.536Z,101158.00
2022-08-28T23:17:28.349Z,101162.00
2022-08-28T23:22:28.392Z,101164.00
2022-08-28T23:27:36.653Z,101154.00
2022-08-28T23:32:30.404Z,101158.00
2022-08-28T23:37:30.343Z,101156.00
2022-08-28T23:42:31.433Z,101160.00
2022-08-28T23:47:31.327Z,101168.00
2022-08-28T23:52:31.377Z,101170.00
2022-08-28T23:57:32.366Z,101170.00
